Time;durP1;ratioP1;P1;durP2;ratioP2;P2;SDS_P1;SDS_P2;PMS_P1;PMS_P2;Temp;Humidity;BMP_temperature;BMP_pressure;BME280_temperature;BME280_humidity;BME280_pressure;Samples;Min_cycle;Max_cycle;Signal;HPM_P1;HPM_P2
2021/12/07 00:02:24;;;;;;;29.70;3.65;;;;;;;4.53;100.00;100489.94;4994091;28;20389;-54
2021/12/07 00:04:50;;;;;;;19.20;3.15;;;;;;;4.69;100.00;100504.78;4994661;28;20022;-55
2021/12/07 00:07:17;;;;;;;13.93;3.08;;;;;;;4.74;100.00;100492.72;4994297;28;20481;-55
2021/12/07 00:09:45;;;;;;;5.00;2.28;;;;;;;4.79;100.00;100499.66;4994191;28;20050;-55
2021/12/07 00:12:10;;;;;;;9.93;2.22;;;;;;;4.87;100.00;100514.44;5000479;28;20029;-54
2021/12/07 00:14:41;;;;;;;11.57;2.17;;;;;;;4.85;100.00;100517.88;4996668;28;20397;-55
2021/12/07 00:17:07;;;;;;;10.05;1.85;;;;;;;4.88;100.00;100528.25;4994129;28;20133;-55
2021/12/07 00:19:33;;;;;;;2.65;1.27;;;;;;;4.87;100.00;100523.91;4993985;28;20484;-56
2021/12/07 00:22:00;;;;;;;6.38;1.92;;;;;;;4.86;100.00;100514.41;4994055;28;20062;-56
2021/12/07 00:24:25;;;;;;;2.60;2.33;;;;;;;4.87;100.00;100524.78;4994067;28;20035;-56
2021/12/07 00:26:51;;;;;;;6.72;2.33;;;;;;;4.87;100.00;100524.78;4994303;28;20089;-53
2021/12/07 00:29:16;;;;;;;5.28;1.83;;;;;;;4.88;100.00;100546.38;5000580;28;20565;-53
2021/12/07 00:31:52;;;;;;;14.77;3.28;;;;;;;4.90;100.00;100547.22;4993693;28;20438;-56
2021/12/07 00:34:40;;;;;;;5.40;1.42;;;;;;;4.89;100.00;100546.38;4994060;28;20084;-54
2021/12/07 00:37:06;;;;;;;12.70;3.10;;;;;;;4.88;100.00;100551.53;4994305;28;20101;-56
2021/12/07 00:39:34;;;;;;;5.18;2.67;;;;;;;4.81;100.00;100549.75;4994205;28;20054;-56
2021/12/07 00:41:59;;;;;;;6.30;2.75;;;;;;;4.82;100.00;100541.13;5000404;28;20369;-55
2021/12/07 00:44:26;;;;;;;3.78;2.60;;;;;;;4.87;100.00;100544.63;5007080;28;20033;-54
2021/12/07 00:46:52;;;;;;;6.05;1.77;;;;;;;4.90;100.00;100560.19;4997704;28;20084;-55
2021/12/07 00:49:18;;;;;;;2.15;1.52;;;;;;;4.85;100.00;100546.34;4997754;28;20470;-53
2021/12/07 00:51:44;;;;;;;2.55;1.65;;;;;;;4.88;100.00;100561.91;4997666;28;20040;-56
2021/12/07 00:54:10;;;;;;;4.68;1.92;;;;;;;4.86;100.00;100563.59;4998810;28;20018;-52
2021/12/07 00:56:36;;;;;;;10.35;2.17;;;;;;;4.79;100.00;100556.63;4998080;28;20042;-52
2021/12/07 00:59:02;;;;;;;7.22;1.58;;;;;;;4.80;100.00;100563.53;4997986;28;20062;-52
2021/12/07 01:01:27;;;;;;;4.18;1.83;;;;;;;4.84;100.00;100562.72;4997822;28;20022;-54
2021/12/07 01:03:53;;;;;;;8.00;2.95;;;;;;;4.85;100.00;100580.88;4997591;28;20397;-53
2021/12/07 01:24:51;;;;;;;8.65;3.05;;;;;;;4.85;100.00;100613.66;4999571;28;20548;-52
2021/12/07 01:27:20;;;;;;;6.25;3.08;;;;;;;4.89;100.00;100605.06;4979883;28;20026;-53
2021/12/07 01:29:48;;;;;;;3.05;2.08;;;;;;;4.90;100.00;100617.13;4997029;28;20497;-55
2021/12/07 01:32:29;;;;;;;8.77;3.15;;;;;;;4.90;100.00;100622.31;5001165;28;20037;-54
2021/12/07 01:37:55;;;;;;;3.17;1.10;;;;;;;4.97;100.00;100637.06;4997452;28;20097;-56
2021/12/07 01:51:45;;;;;;;16.90;2.05;;;;;;;5.00;100.00;100657.81;4997039;28;20065;-55
2021/12/07 01:59:45;;;;;;;5.15;2.10;;;;;;;4.86;100.00;100651.59;4984458;28;20054;-53
2021/12/07 02:02:12;;;;;;;3.08;1.25;;;;;;;4.83;100.00;100662.78;4996387;28;20030;-55
2021/12/07 02:04:39;;;;;;;3.13;1.75;;;;;;;4.78;100.00;100666.19;4996518;28;20433;-55
2021/12/07 02:07:06;;;;;;;7.00;2.70;;;;;;;4.74;100.00;100668.72;4996548;28;20032;-54
2021/12/07 02:09:36;;;;;;;4.38;2.10;;;;;;;4.69;100.00;100685.06;4996084;28;20018;-56
2021/12/07 02:12:06;;;;;;;6.47;1.85;;;;;;;4.67;100.00;100692.78;4997656;28;20358;-55
2021/12/07 02:14:31;;;;;;;21.30;2.05;;;;;;;4.64;100.00;100692.75;4999465;28;20030;-53
2021/12/07 02:16:59;;;;;;;4.25;2.05;;;;;;;4.63;100.00;100696.19;4996233;28;20413;-55
2021/12/07 02:19:24;;;;;;;5.95;1.67;;;;;;;4.59;100.00;100704.75;4995998;28;20030;-53
2021/12/07 02:21:52;;;;;;;5.32;1.95;;;;;;;4.59;100.00;100699.59;4996019;28;20022;-53
2021/12/07 02:24:17;;;;;;;3.25;1.20;;;;;;;4.57;100.00;100696.13;4995884;28;20026;-54
2021/12/07 02:26:43;;;;;;;3.75;1.88;;;;;;;4.57;100.00;100701.28;4995900;28;20053;-54
2021/12/07 02:29:09;;;;;;;5.30;2.78;;;;;;;4.56;100.00;100694.38;4996103;28;20458;-53
2021/12/07 02:31:35;;;;;;;5.15;1.83;;;;;;;4.51;100.00;100711.53;4995890;28;20462;-56
2021/12/07 02:34:02;;;;;;;1.75;1.42;;;;;;;4.54;100.00;100719.34;5003631;28;20026;-52
2021/12/07 02:36:28;;;;;;;10.38;2.03;;;;;;;4.53;100.00;100717.63;4995697;28;20052;-54
2021/12/07 02:38:54;;;;;;;1.48;1.15;;;;;;;4.49;100.00;100713.25;4995939;28;20485;-54
2021/12/07 02:41:19;;;;;;;5.82;1.60;;;;;;;4.47;100.00;100720.13;4995881;28;20026;-53
2021/12/07 02:43:45;;;;;;;5.03;2.10;;;;;;;4.43;100.00;100728.69;4995366;28;20092;-53
2021/12/07 02:46:11;;;;;;;17.10;1.50;;;;;;;4.40;100.00;100726.06;4995897;28;20080;-55
2021/12/07 02:48:37;;;;;;;7.50;1.85;;;;;;;4.34;100.00;100733.69;4995460;28;20101;-55
2021/12/07 02:51:03;;;;;;;2.75;1.55;;;;;;;4.30;100.00;100742.25;4995439;28;20026;-52
2021/12/07 02:53:31;;;;;;;5.78;2.13;;;;;;;4.26;100.00;100740.47;4995496;28;20027;-53
2021/12/07 02:55:58;;;;;;;14.70;2.28;;;;;;;4.23;100.00;100750.78;4995445;28;20049;-55
2021/12/07 02:58:24;;;;;;;1.95;1.52;;;;;;;4.22;100.00;100755.06;4995615;28;20041;-55
2021/12/07 03:01:00;;;;;;;14.52;2.13;;;;;;;4.22;100.00;100749.91;4995340;28;20026;-53
2021/12/07 03:03:27;;;;;;;7.10;2.88;;;;;;;4.23;100.00;100750.78;4996827;28;20097;-54
2021/12/07 03:06:20;;;;;;;;;;;;;;;;;;;;;
2021/12/07 03:27:36;;;;;;;6.18;1.67;;;;;;;4.44;100.00;100777.00;4989145;28;20053;-54
2021/12/07 03:30:06;;;;;;;3.40;1.67;;;;;;;4.45;100.00;100783.91;4983068;28;20031;-52
2021/12/07 03:32:32;;;;;;;1.58;1.48;;;;;;;4.40;100.00;100777.78;4994498;28;20401;-54
2021/12/07 03:34:57;;;;;;;1.55;0.80;;;;;;;4.46;100.00;100779.63;4981682;28;20030;-56
2021/12/07 03:37:23;;;;;;;16.85;2.63;;;;;;;4.39;100.00;100786.38;4995023;28;20042;-53
2021/12/07 03:39:49;;;;;;;7.03;2.05;;;;;;;4.39;100.00;100791.56;4980971;28;20078;-52
2021/12/07 03:42:14;;;;;;;3.20;1.35;;;;;;;4.37;100.00;100788.09;4985168;28;20027;-54
2021/12/07 03:44:39;;;;;;;5.40;2.05;;;;;;;4.33;100.00;100786.31;4992379;28;20516;-53
2021/12/07 03:47:05;;;;;;;2.83;0.93;;;;;;;4.21;100.00;100774.06;4975355;28;20034;-56
2021/12/07 03:49:30;;;;;;;3.30;1.73;;;;;;;4.28;100.00;100805.16;4988448;28;20057;-54
2021/12/07 03:51:55;;;;;;;6.20;1.80;;;;;;;4.23;100.00;100794.75;4975504;28;20105;-53
2021/12/07 03:54:21;;;;;;;4.95;2.10;;;;;;;4.22;100.00;100800.75;4992071;28;20080;-53
2021/12/07 03:56:46;;;;;;;11.15;1.65;;;;;;;4.20;100.00;100812.81;4977662;28;20077;-54
2021/12/07 03:59:12;;;;;;;6.82;1.85;;;;;;;4.20;100.00;100792.13;4975159;28;20022;-52
2021/12/07 04:01:37;;;;;;;11.82;1.60;;;;;;;4.14;100.00;100789.44;4988539;28;20064;-54
2021/12/07 04:04:03;;;;;;;4.35;2.20;;;;;;;4.20;100.00;100805.03;4989272;28;20504;-55
2021/12/07 04:06:29;;;;;;;8.38;2.28;;;;;;;4.15;100.00;100806.69;4981632;28;20030;-55
2021/12/07 04:08:55;;;;;;;6.05;2.38;;;;;;;4.06;100.00;100814.28;4972854;28;20066;-55
2021/12/07 04:11:20;;;;;;;5.80;2.33;;;;;;;4.02;100.00;100809.91;4985870;28;20034;-56
2021/12/07 04:13:46;;;;;;;2.95;1.73;;;;;;;3.98;100.00;100802.94;4988828;28;20465;-54
2021/12/07 04:16:12;;;;;;;5.45;1.27;;;;;;;3.92;100.00;100806.28;4993317;28;20057;-55
2021/12/07 04:18:38;;;;;;;2.92;1.88;;;;;;;3.85;100.00;100808.72;4993663;28;20022;-52
2021/12/07 04:21:04;;;;;;;5.97;2.25;;;;;;;3.78;100.00;100813.78;4981167;28;20022;-56
2021/12/07 04:23:34;;;;;;;3.55;1.50;;;;;;;3.70;100.00;100815.34;5003359;28;20099;-54
2021/12/07 04:26:02;;;;;;;8.13;1.52;;;;;;;3.68;100.00;100811.88;4990312;28;20028;-53
2021/12/07 04:28:27;;;;;;;2.90;1.52;;;;;;;3.64;100.00;100819.53;4976319;28;20030;-53
2021/12/07 04:30:53;;;;;;;5.05;1.42;;;;;;;3.65;100.00;100822.16;4988548;28;20497;-52
2021/12/07 04:33:18;;;;;;;1.92;1.70;;;;;;;3.65;100.00;100817.00;4982255;28;20023;-52
2021/12/07 04:35:47;;;;;;;10.23;2.70;;;;;;;3.65;100.00;100811.81;4993363;28;20023;-52
2021/12/07 04:38:13;;;;;;;2.90;2.08;;;;;;;3.58;100.00;100809.94;4982118;28;20021;-53
2021/12/07 04:40:38;;;;;;;2.67;1.55;;;;;;;3.67;100.00;100815.28;4994282;28;20374;-53
2021/12/07 04:43:05;;;;;;;10.23;2.17;;;;;;;3.72;100.00;100802.47;4993500;28;20025;-56
2021/12/07 04:45:51;;;;;;;4.95;0.95;;;;;;;3.62;100.00;100805.72;4982961;28;20474;-54
2021/12/07 04:59:05;;;;;;;1.40;1.30;;;;;;;3.66;100.00;100829.03;4994051;28;20173;-52
2021/12/07 05:01:32;;;;;;;6.20;1.25;;;;;;;3.69;100.00;100830.84;4976907;28;20046;-52
2021/12/07 05:04:02;;;;;;;16.15;2.72;;;;;;;3.67;100.00;100830.78;4977008;28;20031;-53
2021/12/07 05:06:31;;;;;;;5.68;2.17;;;;;;;3.69;100.00;100844.63;4989934;28;20026;-56
2021/12/07 05:09:04;;;;;;;4.18;2.35;;;;;;;3.66;100.00;100843.69;4993703;28;20416;-54
2021/12/07 05:12:16;;;;;;;0.93;0.93;;;;;;;3.59;100.00;100842.69;4992392;28;20030;-53
2021/12/07 05:14:33;;;;;;;4.28;1.67;;;;;;;3.54;100.00;100844.34;4989878;28;20038;-53
2021/12/07 05:38:24;;;;;;;8.63;2.78;;;;;;;3.24;100.00;100859.19;4986789;28;20041;-56
2021/12/07 05:40:49;;;;;;;4.10;1.83;;;;;;;3.24;100.00;100869.50;4983216;28;20022;-53
2021/12/07 05:43:15;;;;;;;3.13;1.15;;;;;;;3.21;100.00;100865.16;4994959;28;20549;-52
2021/12/07 05:45:41;;;;;;;6.13;1.42;;;;;;;3.17;100.00;100873.69;4996908;28;20053;-53
2021/12/07 05:48:07;;;;;;;7.05;2.15;;;;;;;3.15;100.00;100871.88;4978235;28;20022;-55
2021/12/07 05:50:35;;;;;;;9.45;2.03;;;;;;;3.12;100.00;100874.41;4988213;28;20034;-56
2021/12/07 05:53:02;;;;;;;5.60;1.92;;;;;;;3.13;100.00;100876.16;4982592;28;20030;-56
2021/12/07 05:55:29;;;;;;;3.55;1.63;;;;;;;3.06;100.00;100874.28;4996780;28;20077;-56
2021/12/07 05:57:55;;;;;;;6.97;1.73;;;;;;;3.04;100.00;100881.97;4981231;28;20474;-53
2021/12/07 06:00:26;;;;;;;7.03;2.95;;;;;;;3.03;100.00;100879.34;4984694;28;20026;-53
2021/12/07 06:02:53;;;;;;;4.72;2.15;;;;;;;3.02;100.00;100882.78;4995892;28;20048;-55
2021/12/07 06:05:20;;;;;;;3.50;2.55;;;;;;;2.95;100.00;100866.28;4983413;28;20037;-54
2021/12/07 06:07:45;;;;;;;0.75;0.75;;;;;;;3.05;100.00;100888.03;4984172;28;20050;-55
2021/12/07 06:10:11;;;;;;;4.25;1.73;;;;;;;3.04;100.00;100891.44;4991032;28;20050;-54
2021/12/07 06:12:36;;;;;;;9.98;1.92;;;;;;;2.97;100.00;100886.97;4977132;28;20023;-53
2021/12/07 06:15:02;;;;;;;4.45;1.50;;;;;;;2.93;100.00;100898.06;4983152;28;20038;-56
2021/12/07 06:17:28;;;;;;;5.63;2.55;;;;;;;2.83;100.00;100890.09;4987975;28;20046;-54
2021/12/07 06:19:53;;;;;;;20.67;3.08;;;;;;;2.79;100.00;100883.13;4982868;28;20046;-52
2021/12/07 06:22:18;;;;;;;14.68;2.85;;;;;;;2.73;100.00;100885.56;4974654;28;20030;-54
2021/12/07 06:24:44;;;;;;;10.73;3.03;;;;;;;2.69;100.00;100894.06;4993772;28;20030;-54
2021/12/07 06:27:10;;;;;;;7.43;3.38;;;;;;;2.62;100.00;100896.47;4988109;28;20057;-51
2021/12/07 06:29:35;;;;;;;11.25;4.85;;;;;;;2.51;100.00;100893.59;4982851;28;20039;-53
2021/12/07 06:32:00;;;;;;;14.48;4.88;;;;;;;2.49;100.00;100889.25;4992025;28;20085;-55
2021/12/07 06:34:26;;;;;;;12.65;4.63;;;;;;;2.44;100.00;100886.56;4994505;28;20112;-57
2021/12/07 06:36:51;;;;;;;17.38;3.80;;;;;;;2.40;100.00;100889.88;4979634;28;20042;-56
2021/12/07 06:39:18;;;;;;;10.82;5.60;;;;;;;2.34;100.00;100890.63;4987503;28;20026;-55
2021/12/07 06:41:44;;;;;;;14.30;4.68;;;;;;;2.34;100.00;100890.63;4995611;28;20033;-54
2021/12/07 06:44:09;;;;;;;13.13;5.57;;;;;;;2.35;100.00;100883.72;4995233;28;20408;-56
2021/12/07 06:46:34;;;;;;;8.88;5.28;;;;;;;2.32;100.00;100875.94;4988326;28;20026;-58
2021/12/07 06:49:00;;;;;;;10.00;4.78;;;;;;;2.24;100.00;100867.13;4983608;28;20070;-55
2021/12/07 06:51:26;;;;;;;11.35;4.93;;;;;;;2.31;100.00;100879.34;4984940;28;20033;-55
2021/12/07 06:53:51;;;;;;;12.13;5.82;;;;;;;2.33;100.00;100877.69;4973201;28;20042;-58
2021/12/07 06:56:17;;;;;;;10.63;4.85;;;;;;;2.27;100.00;100882.66;4980785;28;20022;-55
2021/12/07 06:58:42;;;;;;;20.88;5.93;;;;;;;2.19;100.00;100873.91;4982457;28;20054;-57
2021/12/07 07:01:11;;;;;;;10.82;4.07;;;;;;;2.15;100.00;100887.53;4974609;28;20034;-56
2021/12/07 07:03:37;;;;;;;9.00;6.32;;;;;;;2.09;100.00;100882.19;4976933;28;20461;-55
2021/12/07 07:06:02;;;;;;;9.20;5.10;;;;;;;2.15;100.00;100903.00;4969471;28;20034;-55
2021/12/07 07:08:28;;;;;;;8.85;4.65;;;;;;;2.17;100.00;100891.00;4972415;28;20046;-56
2021/12/07 07:10:54;;;;;;;11.98;4.22;;;;;;;2.20;100.00;100896.22;4976824;28;20298;-57
2021/12/07 07:13:19;;;;;;;7.80;4.75;;;;;;;2.21;100.00;100893.72;4961660;28;21933;-55
2021/12/07 07:15:45;;;;;;;18.98;5.97;;;;;;;2.15;100.00;100887.53;4946317;28;20050;-55
2021/12/07 07:18:11;;;;;;;11.35;5.00;;;;;;;2.09;100.00;100874.47;4917347;28;20037;-55
2021/12/07 07:20:37;;;;;;;12.00;4.43;;;;;;;2.12;100.00;100871.97;4882570;28;20761;-56
2021/12/07 07:23:03;;;;;;;15.57;5.13;;;;;;;2.13;100.00;100874.59;4840299;28;20053;-59
2021/12/07 07:25:28;;;;;;;14.35;4.93;;;;;;;2.14;100.00;100878.03;4804647;28;20112;-56
2021/12/07 07:27:54;;;;;;;14.57;5.45;;;;;;;2.12;100.00;100878.00;4752521;28;22411;-58
2021/12/07 07:30:20;;;;;;;17.73;5.13;;;;;;;2.12;100.00;100887.44;4682324;28;20026;-60
2021/12/07 07:32:48;;;;;;;8.48;4.70;;;;;;;2.15;100.00;100872.06;4677964;28;22697;-58
2021/12/07 07:35:15;;;;;;;14.32;5.60;;;;;;;2.19;100.00;100873.91;4674097;28;20164;-57
2021/12/07 07:37:41;;;;;;;19.27;4.00;;;;;;;2.15;100.00;100869.50;4725603;28;20044;-55
2021/12/07 07:40:10;;;;;;;7.95;4.35;;;;;;;2.18;100.00;100878.16;4761756;28;20062;-58
2021/12/07 07:42:36;;;;;;;16.13;5.55;;;;;;;2.18;100.00;100885.91;4794343;28;20040;-57
2021/12/07 07:45:03;;;;;;;14.15;5.43;;;;;;;2.18;100.00;100885.03;4781761;28;20878;-54
2021/12/07 07:47:29;;;;;;;10.18;3.97;;;;;;;2.21;100.00;100898.00;4785328;28;20038;-53
2021/12/07 07:49:54;;;;;;;9.77;4.40;;;;;;;2.18;100.00;100897.91;4788886;28;20046;-57
2021/12/07 07:52:20;;;;;;;11.10;5.93;;;;;;;2.13;100.00;100890.06;4769877;28;20375;-56
2021/12/07 07:54:45;;;;;;;17.75;6.22;;;;;;;2.15;100.00;100900.41;4764193;28;24761;-58
2021/12/07 07:57:10;;;;;;;10.07;5.20;;;;;;;2.10;100.00;100894.25;4767516;28;20699;-58
2021/12/07 07:59:38;;;;;;;16.55;6.55;;;;;;;2.16;100.00;100910.75;4703753;28;20049;-57
2021/12/07 08:02:04;;;;;;;18.67;8.40;;;;;;;2.04;100.00;100894.09;4635562;28;20741;-57
2021/12/07 08:04:30;;;;;;;32.20;9.52;;;;;;;2.20;100.00;100916.84;4688000;28;20042;-57
2021/12/07 08:06:55;;;;;;;18.50;8.05;;;;;;;2.22;100.00;100907.47;4628323;28;20031;-59
2021/12/07 08:09:20;;;;;;;20.60;9.68;;;;;;;2.21;100.00;100908.31;4664154;28;20069;-58
2021/12/07 08:11:46;;;;;;;26.35;9.43;;;;;;;2.25;100.00;100912.69;4536720;28;21541;-56
2021/12/07 08:14:11;;;;;;;19.67;10.05;;;;;;;2.24;100.00;100914.41;4619297;28;20042;-59
2021/12/07 08:16:38;;;;;;;24.75;12.65;;;;;;;2.28;100.00;100905.03;4678350;28;20989;-58
2021/12/07 08:19:04;;;;;;;16.90;9.68;;;;;;;2.28;100.00;100905.03;4682887;28;20034;-58
2021/12/07 08:21:29;;;;;;;18.17;8.90;;;;;;;2.33;100.00;100898.31;4692758;28;20037;-58
2021/12/07 08:23:55;;;;;;;17.90;9.38;;;;;;;2.36;100.00;100898.38;4695240;28;20034;-57
2021/12/07 08:26:23;;;;;;;25.73;10.00;;;;;;;2.33;100.00;100883.72;4699835;28;20031;-58
2021/12/07 08:28:50;;;;;;;27.00;10.02;;;;;;;2.36;100.00;100890.66;4704320;28;20041;-60
2021/12/07 08:31:16;;;;;;;27.73;9.98;;;;;;;2.39;100.00;100882.97;4691783;28;20116;-58
2021/12/07 08:33:41;;;;;;;36.35;10.32;;;;;;;2.39;100.00;100875.25;4690781;28;20046;-58
2021/12/07 08:36:06;;;;;;;17.35;9.10;;;;;;;2.45;100.00;100878.00;4702307;28;20042;-57
2021/12/07 08:38:32;;;;;;;20.80;8.07;;;;;;;2.49;100.00;100881.50;4699092;28;20037;-57
2021/12/07 08:40:58;;;;;;;25.40;8.07;;;;;;;2.49;100.00;100884.97;4689923;28;20037;-58
2021/12/07 08:43:27;;;;;;;20.25;7.95;;;;;;;2.34;100.00;100845.91;4680120;28;20045;-59
2021/12/07 08:45:56;;;;;;;23.38;9.15;;;;;;;2.56;100.00;100868.81;4676114;28;20939;-59
2021/12/07 08:48:21;;;;;;;31.42;9.27;;;;;;;2.55;100.00;100874.78;4662962;28;20039;-60
2021/12/07 08:50:48;;;;;;;29.25;9.65;;;;;;;2.59;100.00;100892.09;4673742;28;21799;-57
2021/12/07 08:53:17;;;;;;;24.42;8.75;;;;;;;2.71;100.00;100874.31;4632575;28;21028;-58
2021/12/07 09:01:16;;;;;;;10.05;7.35;;;;;;;2.88;100.00;100863.53;4560742;28;21447;-58
2021/12/07 09:03:42;;;;;;;18.50;7.07;;;;;;;2.99;100.00;100872.38;4511319;28;20030;-58
2021/12/07 09:06:08;;;;;;;31.30;8.43;;;;;;;3.02;100.00;100867.31;4509135;28;20106;-58
2021/12/07 09:08:33;;;;;;;20.90;9.18;;;;;;;3.05;100.00;100872.53;4401068;28;20030;-60
2021/12/07 09:10:59;;;;;;;15.82;5.68;;;;;;;3.08;100.00;100846.78;4563210;28;20037;-59
2021/12/07 09:13:27;;;;;;;18.73;6.72;;;;;;;3.21;100.00;100854.84;4445011;28;20120;-58
2021/12/07 09:15:57;;;;;;;21.98;6.80;;;;;;;3.30;100.00;100859.31;4490913;28;22367;-58
2021/12/07 09:18:25;;;;;;;13.88;6.78;;;;;;;3.37;100.00;100856.03;4489298;28;25628;-57
2021/12/07 09:20:51;;;;;;;18.50;8.02;;;;;;;3.52;100.00;100856.34;4588496;28;20042;-58
2021/12/07 09:23:16;;;;;;;13.45;5.78;;;;;;;3.64;100.00;100863.47;4582928;28;21902;-55
2021/12/07 09:25:42;;;;;;;23.75;7.72;;;;;;;3.68;100.00;100860.97;4554884;28;20058;-58
2021/12/07 09:28:09;;;;;;;16.83;6.97;;;;;;;3.77;100.00;100853.41;4585960;28;20039;-58
2021/12/07 09:30:36;;;;;;;11.38;5.75;;;;;;;3.75;100.00;100839.56;4510521;28;21354;-56
2021/12/07 09:33:01;;;;;;;5.78;3.20;;;;;;;3.84;100.00;100848.34;4526466;28;22054;-59
2021/12/07 09:35:29;;;;;;;9.80;4.00;;;;;;;3.76;100.00;100838.72;4573251;28;23943;-57
2021/12/07 09:37:55;;;;;;;23.50;4.20;;;;;;;3.86;100.00;100846.66;4528200;28;22570;-59
2021/12/07 09:40:23;;;;;;;7.30;3.30;;;;;;;3.81;100.00;100837.94;4571651;28;20208;-58
2021/12/07 09:42:49;;;;;;;3.67;2.80;;;;;;;3.85;100.00;100829.41;4552437;28;20061;-58
2021/12/07 09:45:17;;;;;;;5.38;3.13;;;;;;;4.03;100.00;100855.59;4406600;28;22110;-59
2021/12/07 09:47:44;;;;;;;6.10;2.17;;;;;;;4.11;100.00;100859.19;4485789;28;20157;-59
2021/12/07 09:50:13;;;;;;;7.45;2.20;;;;;;;4.20;100.00;100859.34;4658160;28;20305;-59
2021/12/07 09:52:44;;;;;;;11.93;2.38;;;;;;;4.27;100.00;100840.50;4466820;28;21793;-59
2021/12/07 09:55:13;;;;;;;12.88;2.95;;;;;;;4.35;100.00;100854.44;4318924;28;20943;-58
2021/12/07 09:57:39;;;;;;;6.03;2.93;;;;;;;4.33;100.00;100845.78;4487554;28;20041;-59
2021/12/07 10:00:08;;;;;;;3.35;1.70;;;;;;;4.47;100.00;100843.41;4672627;28;20870;-59
2021/12/07 10:02:33;;;;;;;6.45;2.65;;;;;;;4.50;100.00;100854.69;4630640;28;20046;-58
2021/12/07 10:04:59;;;;;;;6.00;2.25;;;;;;;4.61;100.00;100849.69;4646441;28;20036;-60
2021/12/07 10:07:24;;;;;;;8.68;3.60;;;;;;;4.69;100.00;100855.88;4622949;28;20042;-59
2021/12/07 10:09:50;;;;;;;10.70;3.13;;;;;;;4.84;100.00;100855.22;4608387;28;20042;-55
2021/12/07 10:12:20;;;;;;;7.60;3.30;;;;;;;4.88;100.00;100846.66;4613253;28;20164;-59
2021/12/07 10:14:46;;;;;;;3.63;2.53;;;;;;;4.98;100.00;100853.69;4472282;28;20066;-58
2021/12/07 10:17:11;;;;;;;5.60;1.85;;;;;;;4.91;100.00;100841.50;4656044;23;21395;-56
2021/12/07 10:19:42;;;;;;;8.55;2.63;;;;;;;4.85;100.00;100836.25;4618465;28;20046;-58
2021/12/07 10:22:11;;;;;;;2.25;1.98;;;;;;;4.81;100.00;100818.94;4563411;28;20111;-58
2021/12/07 10:24:48;;;;;;;2.80;2.30;;;;;;;4.87;100.00;100806.06;4514546;28;22168;-59
2021/12/07 10:27:38;;;;;;;11.38;2.45;;;;;;;4.81;100.00;100793.06;4520334;28;21567;-59
2021/12/07 10:30:10;;;;;;;9.93;2.75;;;;;;;4.79;100.00;100794.75;4573908;28;20030;-58
2021/12/07 10:32:39;;;;;;;5.85;2.75;;;;;;;4.77;100.00;100786.09;4531832;28;22027;-58
2021/12/07 10:35:31;;;;;;;12.90;3.77;;;;;;;4.89;100.00;100791.44;4497212;28;20195;-58
2021/12/07 10:38:12;;;;;;;4.90;2.80;;;;;;;4.98;100.00;100783.78;4505467;28;20624;-58
2021/12/07 10:40:57;;;;;;;7.75;3.33;;;;;;;5.13;100.00;100776.25;4544868;28;21476;-58
2021/12/07 10:44:02;;;;;;;10.38;2.42;;;;;;;5.17;100.00;100768.53;4468777;28;20034;-57
2021/12/07 10:46:28;;;;;;;7.07;2.58;;;;;;;5.26;100.00;100757.38;4541688;28;21193;-56
2021/12/07 10:49:13;;;;;;;6.82;2.95;;;;;;;5.25;100.00;100749.63;4602157;28;22979;-59
2021/12/07 10:51:40;;;;;;;6.30;2.50;;;;;;;5.28;100.00;100749.66;4648158;28;24646;-57
2021/12/07 10:54:06;;;;;;;7.90;2.25;;;;;;;5.31;100.00;100745.38;4673175;28;21165;-58
2021/12/07 10:56:34;;;;;;;3.53;2.45;;;;;;;5.36;100.00;100748.88;4690923;28;20143;-58
2021/12/07 10:59:02;;;;;;;3.10;2.38;;;;;;;5.59;100.00;100757.78;4712031;28;20034;-59
2021/12/07 11:01:39;;;;;;;10.52;2.45;;;;;;;5.61;100.00;100755.19;4725090;28;20675;-57
2021/12/07 11:04:25;;;;;;;2.45;2.13;;;;;;;5.60;100.00;100764.69;4706333;28;20194;-57
2021/12/07 11:07:18;;;;;;;2.85;1.60;;;;;;;5.72;100.00;100747.53;4685569;28;20112;-59
2021/12/07 11:09:57;;;;;;;5.45;2.88;;;;;;;6.02;100.00;100753.88;4694774;28;23763;-58
2021/12/07 11:12:25;;;;;;;6.50;2.83;;;;;;;6.03;100.00;100744.38;4701084;28;20157;-58
2021/12/07 11:14:56;;;;;;;3.92;1.85;;;;;;;6.19;100.00;100746.25;4711816;28;20030;-58
2021/12/07 11:17:40;;;;;;;2.03;1.85;;;;;;;6.47;100.00;100742.13;4708231;28;22296;-60
2021/12/07 11:20:06;;;;;;;10.10;2.42;;;;;;;7.18;100.00;100736.44;4711398;28;22255;-59
2021/12/07 11:22:35;;;;;;;5.97;2.80;;;;;;;7.72;100.00;100696.72;4714185;28;20102;-59
2021/12/07 11:25:03;;;;;;;4.22;1.65;;;;;;;8.03;100.00;100719.28;4706981;28;20049;-61
2021/12/07 11:30:21;;;;;;;3.47;2.17;;;;;;;7.30;100.00;100705.28;4714347;28;20042;-58
2021/12/07 11:32:54;;;;;;;8.77;2.35;;;;;;;7.05;100.00;100706.94;4699124;28;20027;-58
2021/12/07 11:35:28;;;;;;;3.92;3.00;;;;;;;6.72;100.00;100681.72;4671724;28;20099;-58
2021/12/07 11:37:56;;;;;;;4.47;1.35;;;;;;;7.02;100.00;100678.34;4665251;28;21738;-58
2021/12/07 11:40:28;;;;;;;11.63;3.13;;;;;;;7.02;100.00;100691.34;4683241;28;20187;-59
2021/12/07 11:42:54;;;;;;;10.25;2.67;;;;;;;7.61;100.00;100686.28;4701649;28;20046;-59
2021/12/07 11:45:28;;;;;;;14.95;3.15;;;;;;;7.77;100.00;100668.97;4697750;28;20046;-59
2021/12/07 11:47:56;;;;;;;10.77;1.92;;;;;;;7.75;100.00;100644.69;4697830;28;21795;-57
2021/12/07 11:50:27;;;;;;;3.60;1.45;;;;;;;8.26;100.00;100662.88;4729336;28;20034;-60
2021/12/07 11:52:56;;;;;;;6.78;1.92;;;;;;;8.49;100.00;100657.63;4714430;28;20034;-59
2021/12/07 11:55:23;;;;;;;3.72;1.45;;;;;;;8.70;100.00;100635.88;4722243;28;20034;-60
2021/12/07 11:57:49;;;;;;;13.20;2.58;;;;;;;8.74;100.00;100627.16;4729952;28;20065;-55
2021/12/07 12:00:21;;;;;;;3.33;2.28;;;;;;;8.27;100.00;100641.19;4720366;28;20085;-60
2021/12/07 12:02:47;;;;;;;3.33;2.15;;;;;;;8.81;100.00;100629.72;4638458;28;20905;-58
2021/12/07 12:05:14;;;;;;;7.20;1.90;;;;;;;9.07;100.00;100627.00;4637508;28;20170;-59
2021/12/07 12:07:41;;;;;;;4.47;2.58;;;;;;;8.70;100.00;100591.59;4585506;28;21653;-59
2021/12/07 12:10:10;;;;;;;3.38;2.08;;;;;;;8.52;100.00;100594.28;4628200;28;20104;-59
2021/12/07 12:13:11;;;;;;;3.92;1.70;;;;;;;8.36;100.00;100555.25;4607734;28;20140;-59
2021/12/07 12:16:15;;;;;;;3.63;2.05;;;;;;;8.46;100.00;100551.78;4595292;29;20565;-60
2021/12/07 12:19:11;;;;;;;5.28;2.15;;;;;;;8.17;100.00;100556.19;4607648;29;20044;-57
2021/12/07 12:22:11;;;;;;;8.13;2.65;;;;;;;7.96;100.00;100533.69;4618219;29;20288;-58
2021/12/07 12:24:52;;;;;;;6.68;2.72;;;;;;;7.92;100.00;100544.97;4626956;29;21917;-58
2021/12/07 12:27:22;;;;;;;2.40;1.92;;;;;;;8.21;100.00;100542.28;4639409;29;20048;-57
2021/12/07 12:29:50;;;;;;;10.65;2.45;;;;;;;8.11;100.00;100535.41;4650873;29;20199;-59
2021/12/07 12:32:27;;;;;;;2.83;1.27;;;;;;;7.98;100.00;100499.88;4680835;28;20291;-59
2021/12/07 12:34:54;;;;;;;3.85;1.98;;;;;;;8.08;100.00;100517.19;4696126;28;20052;-59
2021/12/07 12:37:23;;;;;;;6.03;2.00;;;;;;;7.74;100.00;100520.72;4674608;28;20737;-58
2021/12/07 12:39:53;;;;;;;5.32;1.60;;;;;;;7.38;100.00;100504.31;4552724;28;21180;-58
2021/12/07 12:42:30;;;;;;;10.07;2.88;;;;;;;7.34;100.00;100497.41;4571039;28;20057;-58
2021/12/07 12:45:02;;;;;;;3.67;2.45;;;;;;;7.16;100.00;100484.44;4598236;28;20204;-58
2021/12/07 12:47:29;;;;;;;3.75;1.33;;;;;;;6.97;100.00;100459.28;4564264;28;20974;-56
2021/12/07 12:49:54;;;;;;;3.90;1.63;;;;;;;6.88;100.00;100464.50;4460608;28;20108;-55
2021/12/07 12:52:45;;;;;;;7.45;1.92;;;;;;;6.76;100.00;100460.16;4501439;28;23185;-57
2021/12/07 12:55:26;;;;;;;;;;;;;;;6.67;100.00;100444.56;4559188;28;22086;-57
2021/12/07 12:57:52;;;;;;;2.25;2.05;;;;;;;6.47;100.00;100441.94;4590379;28;20956;-57
2021/12/07 13:00:18;;;;;;;10.45;2.35;;;;;;;6.30;100.00;100427.19;4658289;28;22443;-58
2021/12/07 13:02:50;;;;;;;8.20;2.50;;;;;;;6.12;100.00;100397.78;4703575;28;21480;-55
2021/12/07 13:05:16;;;;;;;6.55;1.65;;;;;;;6.21;100.00;100435.81;4709822;28;20160;-59
2021/12/07 13:07:42;;;;;;;5.80;2.30;;;;;;;6.11;100.00;100432.34;4729484;28;20675;-56
2021/12/07 13:10:07;;;;;;;1.83;1.73;;;;;;;5.91;100.00;100423.63;4758730;28;20164;-58